createdAt,value
2023-03-10T00:00:02.136Z,967.134
2023-03-10T00:01:03.251Z,967.1948
2023-03-10T00:02:03.800Z,967.1182
2023-03-10T00:03:01.552Z,967.0488
2023-03-10T00:04:02.113Z,967.1628
2023-03-10T00:05:03.232Z,967.0488
2023-03-10T00:06:02.167Z,966.9004
2023-03-10T00:07:01.503Z,966.9165
2023-03-10T00:08:03.632Z,967.1089
2023-03-10T00:09:01.479Z,967.0395
2023-03-10T00:10:01.981Z,967.0395
2023-03-10T00:11:01.397Z,966.9801
2023-03-10T00:12:03.588Z,967.0395
2023-03-10T00:13:01.311Z,966.7805
2023-03-10T00:14:01.810Z,966.7297
2023-03-10T00:15:01.326Z,966.8908
2023-03-10T00:16:01.901Z,966.8908
2023-03-10T00:17:03.968Z,966.9255
2023-03-10T00:18:01.807Z,966.8115
2023-03-10T00:19:02.285Z,966.7321
2023-03-10T00:20:01.717Z,966.7259
2023-03-10T00:21:02.202Z,966.7321
2023-03-10T00:22:03.434Z,966.6974
2023-03-10T00:23:03.813Z,966.7829
2023-03-10T00:24:01.640Z,966.7259
2023-03-10T00:25:02.119Z,966.7739
2023-03-10T00:26:03.320Z,966.4593
2023-03-10T00:27:02.113Z,966.7739
2023-03-10T00:28:01.589Z,966.5796
2023-03-10T00:29:02.136Z,966.6632
2023-03-10T00:30:01.589Z,966.5207
2023-03-10T00:31:02.084Z,966.5492
2023-03-10T00:32:01.481Z,966.4921
2023-03-10T00:33:01.971Z,966.631
2023-03-10T00:34:01.510Z,966.6024
2023-03-10T00:35:01.956Z,966.4598
2023-03-10T00:36:01.509Z,966.4598
2023-03-10T00:37:02.931Z,966.3458
2023-03-10T00:38:01.406Z,966.264
2023-03-10T00:39:01.898Z,966.3434
2023-03-10T00:40:01.401Z,966.2602
2023-03-10T00:41:03.556Z,966.2226
2023-03-10T00:42:01.312Z,966.4123
2023-03-10T00:43:03.556Z,966.3362
2023-03-10T00:45:03.487Z,966.2792
2023-03-10T00:46:02.310Z,966.3015
2023-03-10T00:47:01.727Z,966.234
2023-03-10T00:48:02.217Z,966.1176
2023-03-10T00:49:01.727Z,966.1585
2023-03-10T00:50:02.202Z,966.0862
2023-03-10T00:51:01.683Z,966.0068
2023-03-10T00:52:02.119Z,966.1014
2023-03-10T00:53:01.634Z,966.0577
2023-03-10T00:54:03.797Z,965.9027
2023-03-10T00:55:01.631Z,965.9151
2023-03-10T00:56:02.156Z,965.9397
2023-03-10T00:57:03.241Z,965.8698
2023-03-10T00:58:02.082Z,965.9368
2023-03-10T00:59:01.485Z,965.8574
2023-03-10T01:00:02.003Z,965.9762
2023-03-10T01:01:01.512Z,965.9139
2023-03-10T01:02:02.092Z,966.1098
2023-03-10T01:03:01.473Z,965.9139
2023-03-10T01:04:02.023Z,965.8244
2023-03-10T01:05:01.411Z,965.7064
2023-03-10T01:06:01.876Z,965.878
2023-03-10T01:07:03.071Z,965.9984
2023-03-10T01:08:01.898Z,965.9066
2023-03-10T01:09:03.029Z,965.8047
2023-03-10T01:10:01.799Z,965.8618
2023-03-10T01:11:03.949Z,965.9637
2023-03-10T01:12:03.481Z,965.89
2023-03-10T01:13:02.277Z,965.7353
2023-03-10T01:14:03.425Z,965.8495
2023-03-10T01:15:03.872Z,965.9189
2023-03-10T01:16:03.466Z,965.7538
2023-03-10T01:17:02.195Z,965.6458
2023-03-10T01:18:01.633Z,965.8018
2023-03-10T01:19:02.196Z,965.5951
2023-03-10T01:20:01.733Z,965.7273
2023-03-10T01:21:03.800Z,965.7172
2023-03-10T01:22:01.563Z,965.6377
2023-03-10T01:23:02.040Z,965.6153
2023-03-10T01:24:03.238Z,965.7643
2023-03-10T01:25:02.075Z,965.6662
2023-03-10T01:26:01.478Z,965.6084
2023-03-10T01:27:01.956Z,965.5327
2023-03-10T01:28:01.516Z,965.5749
2023-03-10T01:29:01.942Z,965.5178
2023-03-10T01:30:01.474Z,965.509
2023-03-10T01:31:01.940Z,965.3497
2023-03-10T01:32:01.416Z,965.4573
2023-03-10T01:33:01.923Z,965.3468
2023-03-10T01:34:02.991Z,965.5213
2023-03-10T01:35:01.797Z,965.3244
2023-03-10T01:36:03.058Z,965.2509
2023-03-10T01:37:01.798Z,965.2346
2023-03-10T01:38:02.330Z,965.3212
2023-03-10T01:39:03.399Z,965.2201
2023-03-10T01:40:02.201Z,965.2795
2023-03-10T01:41:01.716Z,965.0823
2023-03-10T01:42:02.198Z,965.1304
2023-03-10T01:43:03.339Z,965.1651
2023-03-10T01:44:02.112Z,965.0283
2023-03-10T01:45:01.633Z,964.9914
2023-03-10T01:46:02.121Z,965.1782
2023-03-10T01:47:01.651Z,964.9943
2023-03-10T01:48:03.712Z,965.0648
2023-03-10T01:49:01.597Z,965.1119
2023-03-10T01:50:01.976Z,965.2201
2023-03-10T01:51:01.485Z,965.2006
2023-03-10T01:52:01.960Z,965.0362
2023-03-10T01:53:01.404Z,965.0739
2023-03-10T01:54:01.897Z,965.1087
2023-03-10T01:55:01.397Z,964.9074
2023-03-10T01:56:03.567Z,964.9433
2023-03-10T01:57:02.999Z,965.0609
2023-03-10T01:58:01.813Z,964.9202
2023-03-10T02:00:03.496Z,964.8668
2023-03-10T02:01:02.365Z,965.0291
2023-03-10T02:02:01.773Z,965.0076
2023-03-10T02:03:02.197Z,964.7395
2023-03-10T02:04:01.731Z,964.8535
2023-03-10T02:05:02.205Z,964.7109
2023-03-10T02:06:01.632Z,964.6598
2023-03-10T02:07:03.811Z,964.88
2023-03-10T02:08:01.644Z,964.8452
2023-03-10T02:09:03.802Z,964.9421
2023-03-10T02:10:01.562Z,964.9147
2023-03-10T02:11:03.708Z,964.7109
2023-03-10T02:12:03.242Z,964.7865
2023-03-10T02:13:03.719Z,964.768
2023-03-10T02:14:01.476Z,964.6312
2023-03-10T02:15:03.639Z,964.67
2023-03-10T02:16:03.175Z,964.9056
2023-03-10T02:17:01.881Z,964.7426
2023-03-10T02:18:01.474Z,964.5965
2023-03-10T02:19:01.872Z,964.6598
2023-03-10T02:20:01.316Z,964.527
2023-03-10T02:21:01.806Z,964.6312
2023-03-10T02:22:02.284Z,964.4647
2023-03-10T02:23:01.794Z,964.4974
2023-03-10T02:24:02.280Z,964.5444
2023-03-10T02:25:01.760Z,964.5086
2023-03-10T02:26:02.241Z,964.5944
2023-03-10T02:27:01.725Z,964.5545
2023-03-10T02:28:02.198Z,964.4678
2023-03-10T02:29:03.325Z,964.4647
2023-03-10T02:30:03.795Z,964.3881
2023-03-10T02:31:01.662Z,964.4106
2023-03-10T02:32:03.914Z,964.3534
2023-03-10T02:33:03.267Z,964.43
2023-03-10T02:34:02.048Z,964.2361
2023-03-10T02:35:01.600Z,964.2646
2023-03-10T02:36:02.176Z,964.3014
2023-03-10T02:37:01.487Z,964.3383
2023-03-10T02:38:01.987Z,964.2811
2023-03-10T02:39:01.411Z,964.1769
2023-03-10T02:40:01.930Z,964.1258
2023-03-10T02:41:01.406Z,964.1993
2023-03-10T02:42:01.882Z,964.1248
2023-03-10T02:43:01.328Z,964.0962
2023-03-10T02:44:01.806Z,964.134
2023-03-10T02:45:01.352Z,964.0298
2023-03-10T02:46:01.921Z,963.9277
2023-03-10T02:47:03.970Z,963.8683
2023-03-10T02:48:01.727Z,964.0523
2023-03-10T02:49:03.886Z,963.9951
2023-03-10T02:50:01.740Z,964.0012
2023-03-10T02:51:02.246Z,963.9563
2023-03-10T02:52:03.322Z,963.8774
2023-03-10T02:53:03.808Z,963.8488
2023-03-10T02:54:01.642Z,963.7641
2023-03-10T02:55:02.125Z,963.9277
2023-03-10T02:56:01.578Z,963.9144
2023-03-10T02:57:02.066Z,963.9297
2023-03-10T02:58:01.567Z,963.9471
2023-03-10T02:59:03.715Z,963.941
2023-03-10T03:00:01.522Z,963.9829
2023-03-10T03:01:02.024Z,964.0176
2023-03-10T03:02:03.178Z,963.9829
2023-03-10T03:03:01.973Z,963.9829
2023-03-10T03:04:01.576Z,963.6934
2023-03-10T03:05:01.884Z,963.812
2023-03-10T03:06:03.013Z,963.7783
2023-03-10T03:07:01.902Z,963.7425
2023-03-10T03:08:03.025Z,963.7119
2023-03-10T03:09:01.803Z,963.5922
2023-03-10T03:10:02.298Z,963.7567
2023-03-10T03:11:01.797Z,963.7506
2023-03-10T03:12:02.287Z,963.6586
2023-03-10T03:13:01.748Z,963.7884
2023-03-10T03:14:02.209Z,963.7148
2023-03-10T03:15:01.637Z,963.6208
2023-03-10T03:16:03.827Z,963.8991
2023-03-10T03:17:01.861Z,963.8991
2023-03-10T03:18:02.154Z,963.7353
2023-03-10T03:19:01.736Z,963.5545
2023-03-10T03:20:03.716Z,963.8805
2023-03-10T03:21:01.559Z,963.5791
2023-03-10T03:22:02.045Z,963.6486
2023-03-10T03:23:01.503Z,963.5945
2023-03-10T03:24:01.952Z,963.5627
2023-03-10T03:25:01.516Z,963.5341
2023-03-10T03:26:02.026Z,963.5975
2023-03-10T03:27:01.407Z,963.5087
2023-03-10T03:28:01.908Z,963.6803
2023-03-10T03:29:01.401Z,963.6334
2023-03-10T03:30:01.908Z,963.4945
2023-03-10T03:31:03.080Z,963.519
2023-03-10T03:32:01.966Z,963.5834
2023-03-10T03:33:01.306Z,963.5548
2023-03-10T03:34:04.424Z,963.5639
2023-03-10T03:35:02.152Z,963.5201
2023-03-10T03:36:01.690Z,963.5028
2023-03-10T03:37:02.121Z,963.5692
2023-03-10T03:38:01.558Z,963.4487
2023-03-10T03:39:02.049Z,963.507
2023-03-10T03:40:01.572Z,963.507
2023-03-10T03:41:02.051Z,963.458
2023-03-10T03:42:01.473Z,963.6172
2023-03-10T03:43:01.964Z,963.5754
2023-03-10T03:44:01.494Z,963.5314
2023-03-10T03:45:01.951Z,963.5355
2023-03-10T03:46:01.461Z,963.4897
2023-03-10T03:47:01.875Z,963.5917
2023-03-10T03:48:01.402Z,963.2967
2023-03-10T03:49:01.867Z,963.3886
2023-03-10T03:50:01.379Z,963.3795
2023-03-10T03:51:01.857Z,963.5773
2023-03-10T03:52:02.984Z,963.4119
2023-03-10T03:53:03.488Z,963.3885
2023-03-10T03:54:02.261Z,963.5201
2023-03-10T03:55:01.813Z,963.4171
2023-03-10T03:56:02.271Z,963.5314
2023-03-10T03:57:01.734Z,963.6203
2023-03-10T03:58:02.188Z,963.5314
2023-03-10T03:59:01.711Z,963.5314
2023-03-10T04:00:02.190Z,963.3885
2023-03-10T04:01:01.632Z,963.5079
2023-03-10T04:02:02.188Z,963.4251
2023-03-10T04:03:01.618Z,963.3394
2023-03-10T04:04:03.907Z,963.3821
2023-03-10T04:05:01.555Z,963.3802
2023-03-10T04:06:02.039Z,963.4793
2023-03-10T04:07:01.578Z,963.3772
2023-03-10T04:08:02.030Z,963.2689
2023-03-10T04:09:01.474Z,963.5487
2023-03-10T04:10:01.946Z,963.3679
2023-03-10T04:11:01.478Z,963.3669
2023-03-10T04:12:03.649Z,963.418
2023-03-10T04:13:03.083Z,963.3833
2023-03-10T04:14:01.942Z,963.4629
2023-03-10T04:15:01.405Z,963.4038
2023-03-10T04:16:01.957Z,963.3691
2023-03-10T04:17:01.391Z,963.2914
2023-03-10T04:18:01.861Z,963.1533
2023-03-10T04:20:07.347Z,963.1533
2023-03-10T04:21:02.297Z,963.0962
2023-03-10T04:22:01.704Z,963.1594
2023-03-10T04:23:02.308Z,963.1003
2023-03-10T04:24:01.705Z,963.0962
2023-03-10T04:25:02.187Z,963.051
2023-03-10T04:26:01.741Z,963.2226
2023-03-10T04:27:02.209Z,963.2493
2023-03-10T04:28:01.639Z,963.2902
2023-03-10T04:29:02.108Z,963.1064
2023-03-10T04:30:01.627Z,963.0962
2023-03-10T04:31:02.170Z,963.2044
2023-03-10T04:32:05.660Z,962.9919
2023-03-10T04:33:02.031Z,963.0796
2023-03-10T04:34:01.548Z,963.1654
2023-03-10T04:35:02.119Z,962.9366
2023-03-10T04:36:01.604Z,963.0253
2023-03-10T04:37:03.713Z,963.1417
2023-03-10T04:38:01.499Z,962.9109
2023-03-10T04:39:01.961Z,963.0764
2023-03-10T04:40:01.482Z,963.006
2023-03-10T04:41:01.949Z,963.0285
2023-03-10T04:42:01.388Z,962.9366
2023-03-10T04:43:01.896Z,962.9683
2023-03-10T04:44:03.077Z,963.1656
2023-03-10T04:45:01.828Z,963.0796
2023-03-10T04:46:02.314Z,962.7782
2023-03-10T04:47:03.469Z,962.8251
2023-03-10T04:48:03.953Z,962.9578
2023-03-10T04:49:01.723Z,962.908
2023-03-10T04:50:02.225Z,962.8478
2023-03-10T04:51:01.750Z,962.7652
2023-03-10T04:52:02.203Z,963.0224
2023-03-10T04:53:01.636Z,963.0285
2023-03-10T04:54:02.120Z,962.8987
2023-03-10T04:55:01.708Z,962.9652
2023-03-10T04:56:02.109Z,962.8041
2023-03-10T04:57:01.558Z,962.8224
2023-03-10T04:58:02.041Z,962.9366
2023-03-10T04:59:01.563Z,962.8793
2023-03-10T05:00:03.351Z,962.9366
2023-03-10T05:01:03.625Z,962.8793
2023-03-10T05:02:02.030Z,963.051
2023-03-10T05:03:03.154Z,962.8203
2023-03-10T05:04:02.012Z,962.7496
2023-03-10T05:05:03.101Z,962.8325
2023-03-10T05:06:01.875Z,962.8775
2023-03-10T05:07:03.072Z,962.9397
2023-03-10T05:08:01.894Z,962.896
2023-03-10T05:09:01.400Z,962.8221
2023-03-10T05:10:01.909Z,962.8537
2023-03-10T05:11:01.328Z,962.9967
2023-03-10T05:12:01.807Z,962.8915
2023-03-10T05:13:02.279Z,962.9366
2023-03-10T05:14:01.810Z,962.6672
2023-03-10T05:15:02.299Z,962.762
2023-03-10T05:16:03.476Z,962.8221
2023-03-10T05:17:02.191Z,962.7363
2023-03-10T05:18:02.161Z,962.7141
2023-03-10T05:19:02.196Z,962.6608
2023-03-10T05:20:01.631Z,962.7697
2023-03-10T05:21:03.799Z,962.6309
2023-03-10T05:22:01.630Z,962.5708
2023-03-10T05:23:03.792Z,962.7363
2023-03-10T05:24:01.555Z,962.7077
2023-03-10T05:25:02.064Z,962.7771
2023-03-10T05:26:01.564Z,962.9201
2023-03-10T05:27:02.070Z,962.8926
2023-03-10T05:28:01.475Z,962.9652
2023-03-10T05:29:01.989Z,962.8568
2023-03-10T05:30:01.495Z,962.9456
2023-03-10T05:31:02.000Z,962.7289
2023-03-10T05:32:01.408Z,963.0253
2023-03-10T05:33:02.847Z,962.8341
2023-03-10T05:34:01.539Z,963.0558
2023-03-10T05:35:02.051Z,963.1295
2023-03-10T05:36:03.280Z,962.8749
2023-03-10T05:37:02.039Z,962.9626
2023-03-10T05:38:01.471Z,963.0668
2023-03-10T05:39:01.971Z,962.9913
2023-03-10T05:40:01.496Z,963.0967
2023-03-10T05:41:03.655Z,963.1581
2023-03-10T05:42:01.486Z,962.9803
2023-03-10T05:43:03.551Z,962.8627
2023-03-10T05:44:01.394Z,962.9456
2023-03-10T05:45:01.891Z,963.0845
2023-03-10T05:46:03.026Z,962.9292
2023-03-10T05:47:01.961Z,963.1009
2023-03-10T05:49:03.487Z,963.0558
2023-03-10T05:50:02.280Z,963.0845
2023-03-10T05:51:01.721Z,962.978
2023-03-10T05:52:02.229Z,963.0291
2023-03-10T05:53:03.398Z,962.9648
2023-03-10T05:54:02.226Z,963.0916
2023-03-10T05:55:01.650Z,963.0485
2023-03-10T05:56:02.121Z,963.0792
2023-03-10T05:57:01.653Z,963.0722
2023-03-10T05:58:03.794Z,963.051
2023-03-10T05:59:01.597Z,963.051
2023-03-10T06:00:02.122Z,962.9141
2023-03-10T06:01:01.572Z,963.1989
2023-03-10T06:02:02.040Z,962.7697
2023-03-10T06:03:01.599Z,962.8537
2023-03-10T06:04:02.120Z,962.8526
2023-03-10T06:05:01.521Z,962.9199
2023-03-10T06:06:01.967Z,962.8087
2023-03-10T06:07:01.402Z,962.774
2023-03-10T06:08:01.881Z,962.872
2023-03-10T06:09:01.405Z,962.7771
2023-03-10T06:10:01.924Z,962.6913
2023-03-10T06:11:01.328Z,962.8793
2023-03-10T06:12:01.884Z,962.8221
2023-03-10T06:13:03.000Z,962.9212
2023-03-10T06:14:01.808Z,962.8253
2023-03-10T06:15:02.307Z,962.9938
2023-03-10T06:16:01.811Z,963.1368
2023-03-10T06:17:02.204Z,962.9938
2023-03-10T06:18:03.422Z,963.0815
2023-03-10T06:19:02.214Z,963.0845
2023-03-10T06:20:03.340Z,962.97
2023-03-10T06:21:02.206Z,962.8842
2023-03-10T06:22:03.319Z,963.0619
2023-03-10T06:23:02.121Z,962.9934
2023-03-10T06:24:03.228Z,962.8861
2023-03-10T06:25:03.753Z,962.97
2023-03-10T06:26:01.555Z,962.7771
2023-03-10T06:27:02.044Z,962.8762
2023-03-10T06:28:01.492Z,962.8026
2023-03-10T06:29:01.972Z,962.8678
2023-03-10T06:30:01.478Z,962.833
2023-03-10T06:31:03.663Z,962.8678
2023-03-10T06:32:03.129Z,962.7983
2023-03-10T06:33:02.904Z,962.8556
2023-03-10T06:34:04.225Z,962.9986
2023-03-10T06:35:03.799Z,962.9292
2023-03-10T06:36:01.676Z,962.7965
2023-03-10T06:37:02.141Z,962.7954
2023-03-10T06:38:03.239Z,962.8269
2023-03-10T06:39:02.046Z,962.8556
2023-03-10T06:40:01.626Z,962.8556
2023-03-10T06:41:02.042Z,962.9128
2023-03-10T06:42:01.515Z,963.0558
2023-03-10T06:43:01.972Z,962.9128
2023-03-10T06:44:03.076Z,962.8829
2023-03-10T06:45:01.891Z,962.9401
2023-03-10T06:46:01.497Z,963.0771
2023-03-10T06:47:03.590Z,963.163
2023-03-10T06:48:01.322Z,963.0485
2023-03-10T06:49:03.477Z,962.9974
2023-03-10T06:50:02.286Z,963.0576
2023-03-10T06:51:01.804Z,963.082
2023-03-10T06:52:02.282Z,963.2293
2023-03-10T06:53:01.986Z,962.9749
2023-03-10T06:54:02.275Z,963.0392
2023-03-10T06:55:01.793Z,963.0576
2023-03-10T06:56:02.206Z,963.1331
2023-03-10T06:57:01.720Z,963.0565
2023-03-10T06:58:02.224Z,963.082
2023-03-10T06:59:01.657Z,963.1434
2023-03-10T07:00:02.169Z,963.0382
2023-03-10T07:01:01.695Z,963.1106
2023-03-10T07:02:03.799Z,962.9736
2023-03-10T07:03:01.570Z,963.2026
2023-03-10T07:04:02.057Z,963.1923
2023-03-10T07:05:01.678Z,963.2148
2023-03-10T07:06:02.042Z,963.2587
2023-03-10T07:07:03.172Z,963.1789
2023-03-10T07:08:01.977Z,963.3772
2023-03-10T07:09:01.477Z,963.1482
2023-03-10T07:10:01.962Z,963.1625
2023-03-10T07:11:01.395Z,963.2299
2023-03-10T07:12:01.892Z,963.2145
2023-03-10T07:13:01.412Z,963.1726
2023-03-10T07:14:01.877Z,963.3097
2023-03-10T07:15:01.334Z,963.412
2023-03-10T07:16:01.800Z,963.2136
2023-03-10T07:17:02.352Z,963.1829
2023-03-10T07:18:01.838Z,963.1482
2023-03-10T07:19:02.300Z,963.2484
2023-03-10T07:20:01.722Z,963.2402
2023-03-10T07:21:02.185Z,963.2177
2023-03-10T07:22:01.713Z,963.0581
2023-03-10T07:23:02.215Z,963.2177
2023-03-10T07:24:01.633Z,963.1
2023-03-10T07:25:02.116Z,963.1
2023-03-10T07:26:03.471Z,963.2042
2023-03-10T07:27:02.104Z,963.3689
2023-03-10T07:28:01.559Z,963.2299
2023-03-10T07:29:02.051Z,963.1829
2023-03-10T07:30:01.469Z,963.0869
2023-03-10T07:31:02.906Z,963.1482
2023-03-10T07:32:01.637Z,963.1286
2023-03-10T07:33:02.115Z,963.1634
2023-03-10T07:34:01.561Z,963.1028
2023-03-10T07:35:02.037Z,963.249
2023-03-10T07:36:01.568Z,963.1435
2023-03-10T07:37:02.025Z,963.0739
2023-03-10T07:38:01.471Z,963.0739
2023-03-10T07:39:01.972Z,963.1466
2023-03-10T07:40:01.488Z,963.2244
2023-03-10T07:41:02.229Z,963.1497
2023-03-10T07:42:01.392Z,963.0332
2023-03-10T07:43:01.881Z,963.2942
2023-03-10T07:44:01.422Z,963.2942
2023-03-10T07:45:01.881Z,963.1417
2023-03-10T07:46:01.344Z,963.1601
2023-03-10T07:47:01.793Z,963.199
2023-03-10T07:48:02.277Z,963.1704
2023-03-10T07:49:01.814Z,963.1312
2023-03-10T07:50:02.278Z,963.1844
2023-03-10T07:51:01.718Z,963.2232
2023-03-10T07:52:02.198Z,963.0879
2023-03-10T07:53:01.731Z,963.227
2023-03-10T07:54:02.212Z,963.1646
2023-03-10T07:55:01.640Z,963.1269
2023-03-10T07:56:02.112Z,963.2312
2023-03-10T07:57:01.628Z,963.1646
2023-03-10T07:58:02.109Z,963.3631
2023-03-10T07:59:03.253Z,963.1972
2023-03-10T08:00:02.045Z,963.318
2023-03-10T08:01:01.576Z,963.1111
2023-03-10T08:02:02.046Z,963.1788
2023-03-10T08:03:03.158Z,963.1594
2023-03-10T08:04:03.785Z,963.0959
2023-03-10T08:05:01.571Z,963.1513
2023-03-10T08:06:01.959Z,963.1945
2023-03-10T08:07:01.397Z,963.1085
2023-03-10T08:08:01.888Z,963.1372
2023-03-10T08:09:03.018Z,963.0921
2023-03-10T08:10:01.812Z,963.2947
2023-03-10T08:12:01.796Z,963.1073
2023-03-10T08:13:02.275Z,963.2935
2023-03-10T08:14:01.903Z,963.3918
2023-03-10T08:15:02.282Z,963.2587
2023-03-10T08:16:01.968Z,963.357
2023-03-10T08:17:02.211Z,963.3417
2023-03-10T08:18:03.315Z,963.4307
2023-03-10T08:19:02.198Z,963.2393
2023-03-10T08:20:01.654Z,963.2599
2023-03-10T08:21:02.128Z,963.308
2023-03-10T08:22:03.316Z,963.2966
2023-03-10T08:23:03.794Z,963.2484
2023-03-10T08:24:01.557Z,963.1727
2023-03-10T08:25:02.035Z,963.2393
2023-03-10T08:26:01.572Z,963.2013
2023-03-10T08:27:02.066Z,963.3508
2023-03-10T08:28:01.480Z,963.0958
2023-03-10T08:29:01.974Z,963.0568
2023-03-10T08:30:01.476Z,962.9633
2023-03-10T08:31:05.324Z,962.8743
2023-03-10T08:32:01.775Z,963.0055
2023-03-10T08:33:01.988Z,962.9182
2023-03-10T08:34:01.390Z,963.0891
2023-03-10T08:35:01.873Z,963.2406
2023-03-10T08:36:01.390Z,963.0775
2023-03-10T08:37:01.832Z,963.0396
2023-03-10T08:38:02.282Z,963.2424
2023-03-10T08:39:01.790Z,963.1593
2023-03-10T08:40:02.283Z,963.073
2023-03-10T08:41:01.740Z,963.1066
2023-03-10T08:42:02.182Z,963.3578
2023-03-10T08:43:01.631Z,963.2325
2023-03-10T08:44:03.786Z,963.1237
2023-03-10T08:45:01.630Z,963.1176
2023-03-10T08:46:02.143Z,963.1751
2023-03-10T08:47:03.319Z,963.2406
2023-03-10T08:48:02.031Z,963.1831
2023-03-10T08:49:01.561Z,963.2117
2023-03-10T08:50:02.043Z,963.2773
2023-03-10T08:51:03.169Z,963.1951
2023-03-10T08:52:01.949Z,963.1849
2023-03-10T08:53:01.469Z,963.1439
2023-03-10T08:54:01.952Z,963.3371
2023-03-10T08:55:01.391Z,963.3599
2023-03-10T08:56:01.948Z,963.2698
2023-03-10T08:57:03.099Z,963.3253
2023-03-10T08:58:01.865Z,963.2074
2023-03-10T08:59:01.383Z,963.3314
2023-03-10T09:00:01.837Z,963.4267
2023-03-10T09:02:01.876Z,963.325
2023-03-10T09:03:04.061Z,963.4275
2023-03-10T09:04:01.794Z,963.2131
2023-03-10T09:05:02.301Z,963.3249
2023-03-10T09:06:01.709Z,963.4717
2023-03-10T09:07:02.192Z,963.1844
2023-03-10T09:08:01.704Z,963.3085
2023-03-10T09:09:02.250Z,963.3763
2023-03-10T09:10:01.640Z,963.3035
2023-03-10T09:11:02.130Z,963.4522
2023-03-10T09:12:01.623Z,963.4184
2023-03-10T09:13:13.281Z,963.4809
2023-03-10T09:14:01.563Z,963.4338
2023-03-10T09:15:02.042Z,963.484
2023-03-10T09:16:01.590Z,963.3938
2023-03-10T09:17:02.207Z,963.3847
2023-03-10T09:18:03.142Z,963.3395
2023-03-10T09:19:01.966Z,963.4964
2023-03-10T09:20:01.466Z,963.3241
2023-03-10T09:21:03.632Z,963.2666
2023-03-10T09:22:03.077Z,963.3528
2023-03-10T09:23:01.920Z,963.283
2023-03-10T09:24:03.103Z,963.4973
2023-03-10T09:25:01.879Z,963.3554
2023-03-10T09:26:01.340Z,963.3348
2023-03-10T09:27:01.796Z,963.2906
2023-03-10T09:28:02.305Z,963.3902
2023-03-10T09:29:01.723Z,963.3902
2023-03-10T09:30:02.279Z,963.46
2023-03-10T09:31:01.711Z,963.3562
2023-03-10T09:32:02.291Z,963.2987
2023-03-10T09:33:01.781Z,963.5195
2023-03-10T09:34:02.218Z,963.3838
2023-03-10T09:35:01.633Z,963.2934
2023-03-10T09:36:06.830Z,963.3221
2023-03-10T09:37:03.308Z,963.1341
2023-03-10T09:38:03.810Z,963.4175
2023-03-10T09:39:01.621Z,963.1592
2023-03-10T09:40:02.417Z,963.3348
2023-03-10T09:41:01.470Z,963.1824
2023-03-10T09:42:01.954Z,963.2945
2023-03-10T09:43:01.467Z,963.2
2023-03-10T09:44:01.968Z,963.0018
2023-03-10T09:45:01.404Z,963.1366
2023-03-10T09:46:01.897Z,963.188
2023-03-10T09:47:01.402Z,963.2621
2023-03-10T09:48:03.211Z,963.1615
2023-03-10T09:49:01.334Z,963.2426
2023-03-10T09:50:01.816Z,963.0771
2023-03-10T09:51:03.959Z,963.1046
2023-03-10T09:52:01.803Z,963.27
2023-03-10T09:53:02.300Z,963.1292
2023-03-10T09:54:01.728Z,963.191
2023-03-10T09:55:02.258Z,963.0092
2023-03-10T09:56:01.765Z,963.1039
2023-03-10T09:57:02.225Z,963.0794
2023-03-10T09:58:03.931Z,963.3127
2023-03-10T09:59:02.120Z,963.1587
2023-03-10T10:00:01.669Z,963.1146
2023-03-10T10:01:02.163Z,963.0222
2023-03-10T10:02:01.559Z,963.2595
2023-03-10T10:03:03.774Z,963.1495
2023-03-10T10:04:01.750Z,963.128
2023-03-10T10:05:04.107Z,963.3127
2023-03-10T10:06:01.511Z,963.3127
2023-03-10T10:07:01.996Z,963.0825
2023-03-10T10:08:01.474Z,963.3127
2023-03-10T10:09:04.960Z,963.0024
2023-03-10T10:10:01.377Z,963.0195
2023-03-10T10:11:01.879Z,963.0987
2023-03-10T10:12:01.420Z,963.0906
2023-03-10T10:13:01.953Z,963.0943
2023-03-10T10:14:01.782Z,963.1796
2023-03-10T10:15:01.803Z,962.9742
2023-03-10T10:16:21.405Z,963.0946
2023-03-10T10:17:01.919Z,963.0752
2023-03-10T10:18:12.119Z,963.033
2023-03-10T10:19:01.845Z,963.1657
2023-03-10T10:20:03.864Z,963.2006
2023-03-10T10:21:01.716Z,963.2582
2023-03-10T10:22:02.226Z,963.0948
2023-03-10T10:23:01.634Z,963.1659
2023-03-10T10:24:02.115Z,963.2009
2023-03-10T10:25:03.330Z,963.2872
2023-03-10T10:26:02.726Z,963.1495
2023-03-10T10:27:03.268Z,963.3128
2023-03-10T10:28:02.066Z,963.1402
2023-03-10T10:29:02.543Z,963.3888
2023-03-10T10:30:03.955Z,963.1176
2023-03-10T10:31:01.744Z,963.3127
2023-03-10T10:32:02.194Z,963.0794
2023-03-10T10:33:01.718Z,963.2087
2023-03-10T10:34:02.204Z,963.1799
2023-03-10T10:35:03.323Z,963.1973
2023-03-10T10:36:02.185Z,963.3607
2023-03-10T10:37:03.326Z,963.3196
2023-03-10T10:38:02.099Z,963.2291
2023-03-10T10:39:01.559Z,963.1036
2023-03-10T10:40:03.712Z,963.2639
2023-03-10T10:41:01.483Z,963.2
2023-03-10T10:42:02.044Z,963.1896
2023-03-10T10:43:03.189Z,963.4303
2023-03-10T10:44:01.953Z,963.0879
2023-03-10T10:45:01.400Z,963.1455
2023-03-10T10:46:01.917Z,963.3152
2023-03-10T10:47:01.396Z,963.2288
2023-03-10T10:48:01.872Z,963.1487
2023-03-10T10:49:01.341Z,963.0686
2023-03-10T10:50:01.788Z,963.1016
2023-03-10T10:51:02.280Z,963.1592
2023-03-10T10:52:01.924Z,962.9988
2023-03-10T10:53:03.987Z,963.1785
2023-03-10T10:54:03.455Z,963.1136
2023-03-10T10:55:02.216Z,963.1155
2023-03-10T10:56:01.654Z,963.1359
2023-03-10T10:57:02.198Z,962.9844
2023-03-10T10:58:02.002Z,963.0646
2023-03-10T10:59:02.131Z,962.9677
2023-03-10T11:00:03.331Z,962.8904
2023-03-10T11:01:02.181Z,963.1725
2023-03-10T11:02:01.775Z,963.183
2023-03-10T11:03:02.054Z,963.0997
2023-03-10T11:04:01.497Z,962.9813
2023-03-10T11:05:01.962Z,963.0677
2023-03-10T11:06:01.504Z,963.0266
2023-03-10T11:07:01.951Z,962.9073
2023-03-10T11:08:03.151Z,962.9567
2023-03-10T11:09:01.967Z,962.9586
2023-03-10T11:10:01.457Z,962.8935
2023-03-10T11:11:01.901Z,963.0364
2023-03-10T11:12:01.503Z,962.962
2023-03-10T11:13:01.861Z,962.9928
2023-03-10T11:14:02.997Z,963.1338
2023-03-10T11:15:01.926Z,962.9141
2023-03-10T11:16:01.441Z,962.7108
2023-03-10T11:17:01.807Z,962.7685
2023-03-10T11:18:04.008Z,962.7819
2023-03-10T11:19:01.793Z,962.7688
2023-03-10T11:20:02.283Z,962.7066
2023-03-10T11:21:01.730Z,962.7157
2023-03-10T11:22:02.266Z,962.7679
2023-03-10T11:23:01.730Z,962.7117
2023-03-10T11:24:02.189Z,962.6919
2023-03-10T11:25:03.410Z,962.5564
2023-03-10T11:26:02.202Z,962.6311
2023-03-10T11:27:01.656Z,962.6081
2023-03-10T11:28:02.115Z,962.516
2023-03-10T11:29:02.635Z,962.5143
2023-03-10T11:30:02.991Z,962.7487
2023-03-10T11:31:01.835Z,962.5933
2023-03-10T11:32:01.329Z,962.5478
2023-03-10T11:33:01.823Z,962.5829
2023-03-10T11:34:02.275Z,962.5093
2023-03-10T11:35:01.796Z,962.6876
2023-03-10T11:36:02.303Z,962.4436
2023-03-10T11:37:01.714Z,962.3294
2023-03-10T11:38:03.912Z,962.4821
2023-03-10T11:39:01.712Z,962.4261
2023-03-10T11:40:03.873Z,962.3207
2023-03-10T11:41:01.644Z,962.447
2023-03-10T11:42:02.128Z,962.4071
2023-03-10T11:43:01.645Z,962.3676
2023-03-10T11:44:02.150Z,962.4055
2023-03-10T11:45:01.572Z,962.4775
2023-03-10T11:46:03.756Z,962.4405
2023-03-10T11:47:03.249Z,962.3675
2023-03-10T11:48:02.046Z,962.475
2023-03-10T11:49:01.492Z,962.4154
2023-03-10T11:50:01.953Z,962.5664
2023-03-10T11:51:01.480Z,962.5335
2023-03-10T11:52:01.964Z,962.4569